Time;durP1;ratioP1;P1;durP2;ratioP2;P2;SDS_P1;SDS_P2;PMS_P1;PMS_P2;Temp;Humidity;BMP_temperature;BMP_pressure;BME280_temperature;BME280_humidity;BME280_pressure;Samples;Min_cycle;Max_cycle;Signal;HPM_P1;HPM_P2
2022/12/08 00:01:50;;;;;;;;;;;;;;;;;;5109780;28;1061;-66
2022/12/08 00:04:15;;;;;;;;;;;;;;;;;;5109437;28;994;-66
2022/12/08 00:09:39;;;;;;;;;;;;;;;;;;5110719;28;1905;-66
2022/12/08 00:12:08;;;;;;;;;;;;;;;;;;5109675;28;1225;-66
2022/12/08 00:14:38;;;;;;;;;;;;;;;;;;5108977;28;1221;-66
2022/12/08 00:17:04;;;;;;;;;;;;;;;;;;5110963;28;1002;-66
2022/12/08 00:19:29;;;;;;;;;;;;;;;;;;5110114;28;825;-66
2022/12/08 00:21:55;;;;;;;;;;;;;;;;;;5110522;28;884;-64
2022/12/08 00:24:21;;;;;;;;;;;;;;;;;;5092039;28;1242;-64
2022/12/08 00:26:46;;;;;;;;;;;;;;;;;;5108978;28;1261;-64
2022/12/08 00:29:12;;;;;;;;;;;;;;;;;;5092316;28;1980;-65
2022/12/08 00:31:38;;;;;;;;;;;;;;;;;;5108999;28;1326;-65
2022/12/08 00:34:03;;;;;;;;;;;;;;;;;;5109943;28;1313;-64
2022/12/08 00:36:29;;;;;;;;;;;;;;;;;;5114125;28;773;-64
2022/12/08 00:38:54;;;;;;;;;;;;;;;;;;5113853;28;1214;-65
2022/12/08 00:44:07;;;;;;;;;;;;;;;;;;5102336;28;1173;-65
2022/12/08 00:46:33;;;;;;;;;;;;;;;;;;5114073;28;883;-65
2022/12/08 00:48:58;;;;;;;;;;;;;;;;;;5114424;28;1890;-65
2022/12/08 00:51:23;;;;;;;;;;;;;;;;;;5095858;28;1377;-65
2022/12/08 00:53:48;;;;;;;;;;;;;;;;;;5114264;28;959;-65
2022/12/08 00:56:14;;;;;;;;;;;;;;;;;;5112684;28;1066;-65
2022/12/08 00:58:39;;;;;;;;;;;;;;;;;;5114138;28;904;-65
2022/12/08 01:01:11;;;;;;;;;;;;;;;;;;5114316;27;982;-65
2022/12/08 01:03:36;;;;;;;;;;;;;;;;;;5113139;28;840;-65
2022/12/08 01:06:02;;;;;;;;;;;;;;;;;;5115213;28;871;-65
2022/12/08 01:08:28;;;;;;;;;;;;;;;;;;5113782;28;1977;-65
2022/12/08 01:10:53;;;;;;;;;;;;;;;;;;5113421;28;898;-65
2022/12/08 01:13:18;;;;;;;;;;;;;;;;;;5114530;28;785;-65
2022/12/08 01:15:43;;;;;;;;;;;;;;;;;;5114586;27;962;-65
2022/12/08 01:18:08;;;;;;;;;;;;;;;;;;5113588;28;896;-65
2022/12/08 01:20:34;;;;;;;;;;;;;;;;;;5113526;28;930;-65
2022/12/08 01:22:59;;;;;;;;;;;;;;;;;;5112010;28;983;-65
2022/12/08 01:25:24;;;;;;;;;;;;;;;;;;5112790;28;891;-65
2022/12/08 01:27:50;;;;;;;;;;;;;;;;;;5113294;28;884;-65
2022/12/08 01:30:16;;;;;;;;;;;;;;;;;;5111770;28;1969;-65
2022/12/08 01:32:41;;;;;;;;;;;;;;;;;;5095408;28;1230;-65
2022/12/08 01:35:06;;;;;;;;;;;;;;;;;;5112363;28;1013;-65
2022/12/08 01:37:32;;;;;;;;;;;;;;;;;;5111246;28;1239;-65
2022/12/08 01:39:57;;;;;;;;;;;;;;;;;;5112978;28;908;-65
2022/12/08 01:42:23;;;;;;;;;;;;;;;;;;5111631;28;1001;-65
2022/12/08 01:44:51;;;;;;;;;;;;;;;;;;5111404;28;966;-65
2022/12/08 01:47:17;;;;;;;;;;;;;;;;;;5112596;28;955;-65
2022/12/08 01:49:42;;;;;;;;;;;;;;;;;;5111780;28;1909;-66
2022/12/08 01:52:13;;;;;;;;;;;;;;;;;;5113194;28;836;-65
2022/12/08 01:54:40;;;;;;;;;;;;;;;;;;5111506;28;1253;-64
2022/12/08 01:57:08;;;;;;;;;;;;;;;;;;5113295;28;793;-65
2022/12/08 01:59:36;;;;;;;;;;;;;;;;;;5113279;28;856;-65
2022/12/08 02:02:01;;;;;;;;;;;;;;;;;;5113086;28;927;-65
2022/12/08 02:04:27;;;;;;;;;;;;;;;;;;5111039;28;972;-65
2022/12/08 02:06:52;;;;;;;;;;;;;;;;;;5111340;28;848;-64
2022/12/08 02:09:18;;;;;;;;;;;;;;;;;;5112342;28;1917;-65
2022/12/08 02:11:43;;;;;;;;;;;;;;;;;;5112587;28;982;-65
2022/12/08 02:14:10;;;;;;;;;;;;;;;;;;5111860;28;954;-65
2022/12/08 02:16:48;;;;;;;;;;;;;;;;;;5112478;28;828;-65
2022/12/08 02:19:17;;;;;;;;;;;;;;;;;;5111185;28;1273;-65
2022/12/08 02:21:42;;;;;;;;;;;;;;;;;;5112797;28;1058;-65
2022/12/08 02:24:23;;;;;;;;;;;;;;;;;;5106158;28;1369;-65
2022/12/08 02:27:02;;;;;;;;;;;;;;;;;;5090987;28;1222;-65
2022/12/08 02:29:46;;;;;;;;;;;;;;;;;;5109935;28;1945;-65
2022/12/08 02:32:24;;;;;;;;;;;;;;;;;;5112965;28;888;-65
2022/12/08 02:34:58;;;;;;;;;;;;;;;;;;5112839;28;947;-65
2022/12/08 02:37:26;;;;;;;;;;;;;;;;;;5112671;28;1179;-65
2022/12/08 02:39:59;;;;;;;;;;;;;;;;;;5113552;28;982;-65
2022/12/08 02:42:36;;;;;;;;;;;;;;;;;;5112604;28;844;-65
2022/12/08 02:45:05;;;;;;;;;;;;;;;;;;5112833;28;892;-65
2022/12/08 02:47:31;;;;;;;;;;;;;;;;;;5112538;28;839;-65
2022/12/08 02:49:56;;;;;;;;;;;;;;;;;;5112074;28;1910;-65
2022/12/08 02:52:21;;;;;;;;;;;;;;;;;;5110121;28;1236;-65
2022/12/08 02:54:52;;;;;;;;;;;;;;;;;;5111990;28;935;-65
2022/12/08 02:57:29;;;;;;;;;;;;;;;;;;5110971;28;923;-65
2022/12/08 03:00:04;;;;;;;;;;;;;;;;;;5111905;28;982;-65
2022/12/08 03:03:08;;;;;;;;;;;;;;;;;;5111074;28;921;-65
2022/12/08 03:05:51;;;;;;;;;;;;;;;;;;5068013;28;1253;-65
2022/12/08 03:08:55;;;;;;;;;;;;;;;;;;5051818;28;1278;-65
2022/12/08 03:11:24;;;;;;;;;;;;;;;;;;5078489;28;1167;-65
2022/12/08 03:13:51;;;;;;;;;;;;;;;;;;5088565;28;977;-65
2022/12/08 03:16:23;;;;;;;;;;;;;;;;;;5098664;28;1230;-65
2022/12/08 03:18:55;;;;;;;;;;;;;;;;;;5111193;28;879;-65
2022/12/08 03:21:21;;;;;;;;;;;;;;;;;;5110842;28;884;-65
2022/12/08 03:23:48;;;;;;;;;;;;;;;;;;5110043;28;1309;-65
2022/12/08 03:26:17;;;;;;;;;;;;;;;;;;5110253;28;1088;-65
2022/12/08 03:28:43;;;;;;;;;;;;;;;;;;5111315;28;1901;-65
2022/12/08 03:31:11;;;;;;;;;;;;;;;;;;5110241;28;1325;-65
2022/12/08 03:33:39;;;;;;;;;;;;;;;;;;5109215;28;1287;-65
2022/12/08 03:36:06;;;;;;;;;;;;;;;;;;5111215;28;864;-65
2022/12/08 03:38:39;;;;;;;;;;;;;;;;;;5110246;28;1159;-65
2022/12/08 03:41:17;;;;;;;;;;;;;;;;;;5111263;28;987;-65
2022/12/08 03:43:42;;;;;;;;;;;;;;;;;;5109612;28;1414;-65
2022/12/08 03:46:08;;;;;;;;;;;;;;;;;;5111434;28;863;-65
2022/12/08 03:48:33;;;;;;;;;;;;;;;;;;5110896;28;2051;-65
2022/12/08 03:50:58;;;;;;;;;;;;;;;;;;5109744;28;1354;-65
2022/12/08 03:53:23;;;;;;;;;;;;;;;;;;5110761;28;855;-65
2022/12/08 03:55:49;;;;;;;;;;;;;;;;;;5111171;28;880;-65
2022/12/08 03:58:14;;;;;;;;;;;;;;;;;;5109490;28;1324;-65
2022/12/08 04:00:40;;;;;;;;;;;;;;;;;;5110564;28;903;-65
2022/12/08 04:03:05;;;;;;;;;;;;;;;;;;5109731;28;840;-65
2022/12/08 04:05:30;;;;;;;;;;;;;;;;;;5092339;28;1218;-65
2022/12/08 04:07:56;;;;;;;;;;;;;;;;;;5112396;28;876;-65
2022/12/08 04:10:21;;;;;;;;;;;;;;;;;;5115613;28;1976;-64
2022/12/08 04:12:46;;;;;;;;;;;;;;;;;;5097733;28;1206;-65
2022/12/08 04:15:12;;;;;;;;;;;;;;;;;;5114644;28;1257;-65
2022/12/08 04:17:37;;;;;;;;;;;;;;;;;;5114862;28;848;-64
2022/12/08 04:20:03;;;;;;;;;;;;;;;;;;5114847;28;907;-65
2022/12/08 04:22:28;;;;;;;;;;;;;;;;;;5113083;28;1010;-65
2022/12/08 04:24:53;;;;;;;;;;;;;;;;;;5113369;28;852;-65
2022/12/08 04:27:19;;;;;;;;;;;;;;;;;;5095425;28;1209;-65
2022/12/08 04:29:44;;;;;;;;;;;;;;;;;;5096649;28;1890;-65
2022/12/08 04:32:09;;;;;;;;;;;;;;;;;;5114601;28;832;-64
2022/12/08 04:34:35;;;;;;;;;;;;;;;;;;5114059;28;935;-65
2022/12/08 04:37:00;;;;;;;;;;;;;;;;;;5114446;28;833;-65
2022/12/08 04:39:25;;;;;;;;;;;;;;;;;;5112516;28;1040;-65
2022/12/08 04:41:50;;;;;;;;;;;;;;;;;;5114665;28;875;-65
2022/12/08 04:44:16;;;;;;;;;;;;;;;;;;5113086;28;1360;-65
2022/12/08 04:46:41;;;;;;;;;;;;;;;;;;5113272;28;1159;-65
2022/12/08 04:49:06;;;;;;;;;;;;;;;;;;5112691;28;1979;-65
2022/12/08 04:51:31;;;;;;;;;;;;;;;;;;5113850;28;823;-65
2022/12/08 04:53:57;;;;;;;;;;;;;;;;;;5114196;28;986;-65
2022/12/08 04:56:22;;;;;;;;;;;;;;;;;;5112756;28;1081;-65
2022/12/08 04:58:47;;;;;;;;;;;;;;;;;;5112688;28;1236;-65
2022/12/08 05:01:13;;;;;;;;;;;;;;;;;;5114311;28;860;-65
2022/12/08 05:03:38;;;;;;;;;;;;;;;;;;5113177;28;1193;-65
2022/12/08 05:06:04;;;;;;;;;;;;;;;;;;5114536;28;891;-65
2022/12/08 05:08:29;;;;;;;;;;;;;;;;;;5114578;28;849;-65
2022/12/08 05:11:01;;;;;;;;;;;;;;;;;;5115829;28;1902;-65
2022/12/08 05:13:26;;;;;;;;;;;;;;;;;;5115069;28;852;-65
2022/12/08 05:15:52;;;;;;;;;;;;;;;;;;5096171;28;1153;-65
2022/12/08 05:18:17;;;;;;;;;;;;;;;;;;5114437;28;895;-65
2022/12/08 05:20:42;;;;;;;;;;;;;;;;;;5114256;28;804;-65
2022/12/08 05:23:07;;;;;;;;;;;;;;;;;;5096661;28;1292;-65
2022/12/08 05:25:33;;;;;;;;;;;;;;;;;;5114752;28;816;-64
2022/12/08 05:27:58;;;;;;;;;;;;;;;;;;5112930;28;959;-64
2022/12/08 05:30:23;;;;;;;;;;;;;;;;;;5111940;28;1980;-66
2022/12/08 05:32:49;;;;;;;;;;;;;;;;;;5112890;28;999;-64
2022/12/08 05:35:14;;;;;;;;;;;;;;;;;;5095909;28;1321;-64
2022/12/08 05:37:39;;;;;;;;;;;;;;;;;;5096410;28;1234;-66
2022/12/08 05:40:05;;;;;;;;;;;;;;;;;;5114457;28;1152;-66
2022/12/08 05:42:30;;;;;;;;;;;;;;;;;;5112641;28;1288;-66
2022/12/08 05:44:55;;;;;;;;;;;;;;;;;;5114442;28;898;-66
2022/12/08 05:47:21;;;;;;;;;;;;;;;;;;5112317;28;880;-66
2022/12/08 05:49:46;;;;;;;;;;;;;;;;;;5112298;28;1906;-65
2022/12/08 05:52:11;;;;;;;;;;;;;;;;;;5112930;28;1093;-64
2022/12/08 05:54:37;;;;;;;;;;;;;;;;;;5112120;28;1244;-64
2022/12/08 05:57:02;;;;;;;;;;;;;;;;;;5113713;27;801;-63
2022/12/08 05:59:27;;;;;;;;;;;;;;;;;;5111558;28;1187;-64
2022/12/08 06:01:52;;;;;;;;;;;;;;;;;;5113531;28;843;-63
2022/12/08 06:04:18;;;;;;;;;;;;;;;;;;5112281;28;1192;-63
2022/12/08 06:06:43;;;;;;;;;;;;;;;;;;5113412;28;959;-64
2022/12/08 06:09:09;;;;;;;;;;;;;;;;;;5113877;28;1944;-64
2022/12/08 06:11:34;;;;;;;;;;;;;;;;;;5112901;28;1054;-64
2022/12/08 06:13:59;;;;;;;;;;;;;;;;;;5112904;28;841;-64
2022/12/08 06:16:25;;;;;;;;;;;;;;;;;;5111341;28;1392;-64
2022/12/08 06:18:51;;;;;;;;;;;;;;;;;;5113454;28;888;-64
2022/12/08 06:21:16;;;;;;;;;;;;;;;;;;5113329;28;1014;-64
2022/12/08 06:23:41;;;;;;;;;;;;;;;;;;5112139;28;1325;-63
2022/12/08 06:26:08;;;;;;;;;;;;;;;;;;5114011;28;994;-64
2022/12/08 06:28:34;;;;;;;;;;;;;;;;;;5112787;28;832;-65
2022/12/08 06:31:05;;;;;;;;;;;;;;;;;;5111319;28;1968;-64
2022/12/08 06:33:30;;;;;;;;;;;;;;;;;;5109407;28;1177;-64
2022/12/08 06:35:57;;;;;;;;;;;;;;;;;;5110999;28;1181;-65
2022/12/08 06:38:22;;;;;;;;;;;;;;;;;;5111487;28;899;-67
2022/12/08 06:40:55;;;;;;;;;;;;;;;;;;5110779;28;1305;-68
2022/12/08 06:43:20;;;;;;;;;;;;;;;;;;5111230;28;864;-68
2022/12/08 06:45:45;;;;;;;;;;;;;;;;;;5111959;28;816;-67
2022/12/08 06:48:10;;;;;;;;;;;;;;;;;;5110809;28;1127;-67
2022/12/08 06:50:36;;;;;;;;;;;;;;;;;;5110229;28;1975;-67
2022/12/08 06:53:01;;;;;;;;;;;;;;;;;;5111152;28;816;-66
2022/12/08 06:55:27;;;;;;;;;;;;;;;;;;5110188;28;836;-68
2022/12/08 06:57:53;;;;;;;;;;;;;;;;;;5111034;28;1478;-67
2022/12/08 07:00:18;;;;;;;;;;;;;;;;;;5093378;28;1440;-68
2022/12/08 07:02:44;;;;;;;;;;;;;;;;;;5111777;28;1217;-67
2022/12/08 07:05:09;;;;;;;;;;;;;;;;;;5112099;28;1333;-68
2022/12/08 07:07:34;;;;;;;;;;;;;;;;;;5112988;28;899;-68
2022/12/08 07:09:59;;;;;;;;;;;;;;;;;;5114755;28;1898;-68
2022/12/08 07:12:24;;;;;;;;;;;;;;;;;;5110601;28;1258;-67
2022/12/08 07:14:50;;;;;;;;;;;;;;;;;;5094110;28;1163;-68
2022/12/08 07:17:15;;;;;;;;;;;;;;;;;;5109914;28;1272;-68
2022/12/08 07:19:40;;;;;;;;;;;;;;;;;;5092977;28;1225;-68
2022/12/08 07:22:05;;;;;;;;;;;;;;;;;;5111009;28;975;-68
2022/12/08 07:24:31;;;;;;;;;;;;;;;;;;5110646;28;955;-68
2022/12/08 07:26:56;;;;;;;;;;;;;;;;;;5111329;28;1002;-68
2022/12/08 07:29:21;;;;;;;;;;;;;;;;;;5110591;28;1962;-68
2022/12/08 07:31:47;;;;;;;;;;;;;;;;;;5109405;28;1202;-68
2022/12/08 07:34:12;;;;;;;;;;;;;;;;;;5093043;28;1242;-68
2022/12/08 07:36:38;;;;;;;;;;;;;;;;;;5109700;28;911;-68
2022/12/08 07:39:03;;;;;;;;;;;;;;;;;;5109286;28;1477;-68
2022/12/08 07:41:28;;;;;;;;;;;;;;;;;;5110593;28;812;-68
2022/12/08 07:43:54;;;;;;;;;;;;;;;;;;5110599;28;801;-68
2022/12/08 07:46:21;;;;;;;;;;;;;;;;;;5108829;28;1332;-68
2022/12/08 07:48:47;;;;;;;;;;;;;;;;;;5110958;28;1942;-68
2022/12/08 07:51:14;;;;;;;;;;;;;;;;;;5109822;28;1246;-68
2022/12/08 07:53:40;;;;;;;;;;;;;;;;;;5108940;28;1167;-68
2022/12/08 07:56:06;;;;;;;;;;;;;;;;;;5109124;28;1328;-67
2022/12/08 07:58:31;;;;;;;;;;;;;;;;;;5108799;28;1197;-68
2022/12/08 08:00:56;;;;;;;;;;;;;;;;;;5109216;28;1230;-68
2022/12/08 08:03:22;;;;;;;;;;;;;;;;;;5109779;28;931;-68
2022/12/08 08:05:48;;;;;;;;;;;;;;;;;;5109721;28;1332;-68
2022/12/08 08:08:14;;;;;;;;;;;;;;;;;;5109592;28;840;-68
2022/12/08 08:10:40;;;;;;;;;;;;;;;;;;5108834;28;1929;-68
2022/12/08 08:13:05;;;;;;;;;;;;;;;;;;5092523;28;1349;-68
2022/12/08 08:15:30;;;;;;;;;;;;;;;;;;5109639;28;903;-68
2022/12/08 08:17:55;;;;;;;;;;;;;;;;;;5110892;28;868;-68
2022/12/08 08:20:21;;;;;;;;;;;;;;;;;;5108737;28;1269;-68
2022/12/08 08:22:47;;;;;;;;;;;;;;;;;;5109466;28;1039;-68
2022/12/08 08:25:13;;;;;;;;;;;;;;;;;;5093257;28;1309;-69
2022/12/08 08:27:38;;;;;;;;;;;;;;;;;;5111550;28;955;-68
2022/12/08 08:30:05;;;;;;;;;;;;;;;;;;5111604;28;1980;-68
2022/12/08 08:32:33;;;;;;;;;;;;;;;;;;5109824;28;1257;-67
2022/12/08 08:34:59;;;;;;;;;;;;;;;;;;5111430;28;812;-67
2022/12/08 08:37:24;;;;;;;;;;;;;;;;;;5110394;28;815;-67
2022/12/08 08:39:49;;;;;;;;;;;;;;;;;;5109149;28;1427;-68
2022/12/08 08:42:15;;;;;;;;;;;;;;;;;;5109332;28;1378;-67
2022/12/08 08:44:40;;;;;;;;;;;;;;;;;;5109900;28;852;-67
2022/12/08 08:47:05;;;;;;;;;;;;;;;;;;5092301;28;1332;-67
2022/12/08 08:49:31;;;;;;;;;;;;;;;;;;5108757;28;1909;-67
2022/12/08 08:51:56;;;;;;;;;;;;;;;;;;5109232;28;852;-68
2022/12/08 08:54:21;;;;;;;;;;;;;;;;;;5108245;28;1209;-68
2022/12/08 08:56:47;;;;;;;;;;;;;;;;;;5111945;28;884;-68
2022/12/08 08:59:12;;;;;;;;;;;;;;;;;;5112505;28;1353;-67
2022/12/08 09:01:37;;;;;;;;;;;;;;;;;;5112353;28;1284;-68
2022/12/08 09:04:03;;;;;;;;;;;;;;;;;;5097130;28;1357;-67
2022/12/08 09:06:28;;;;;;;;;;;;;;;;;;5091588;28;1325;-67
2022/12/08 09:08:53;;;;;;;;;;;;;;;;;;5092066;28;1897;-68
2022/12/08 09:11:19;;;;;;;;;;;;;;;;;;5093517;28;817;-68
2022/12/08 09:13:48;;;;;;;;;;;;;;;;;;5090181;28;1246;-68
2022/12/08 09:16:13;;;;;;;;;;;;;;;;;;5090191;28;1361;-68
2022/12/08 09:18:38;;;;;;;;;;;;;;;;;;5091284;28;876;-68
2022/12/08 09:21:08;;;;;;;;;;;;;;;;;;5090225;28;1354;-68
2022/12/08 09:23:34;;;;;;;;;;;;;;;;;;5090730;28;1057;-67
2022/12/08 09:25:59;;;;;;;;;;;;;;;;;;5091480;28;1050;-67
2022/12/08 09:28:24;;;;;;;;;;;;;;;;;;5090715;28;1050;-68
2022/12/08 09:30:50;;;;;;;;;;;;;;;;;;5092687;28;1959;-68
2022/12/08 09:33:15;;;;;;;;;;;;;;;;;;5092998;28;939;-67
2022/12/08 09:35:40;;;;;;;;;;;;;;;;;;5090745;28;1179;-68
2022/12/08 09:38:06;;;;;;;;;;;;;;;;;;5093346;28;899;-68
2022/12/08 09:40:35;;;;;;;;;;;;;;;;;;5073712;28;1234;-68
2022/12/08 09:43:04;;;;;;;;;;;;;;;;;;5091629;28;1260;-68
2022/12/08 09:45:33;;;;;;;;;;;;;;;;;;5090801;28;1206;-67
2022/12/08 09:48:01;;;;;;;;;;;;;;;;;;5093144;28;856;-67
2022/12/08 09:50:29;;;;;;;;;;;;;;;;;;5092392;28;1921;-67
2022/12/08 09:53:10;;;;;;;;;;;;;;;;;;5092959;28;856;-67
2022/12/08 09:55:39;;;;;;;;;;;;;;;;;;5091681;28;1030;-68
2022/12/08 09:58:08;;;;;;;;;;;;;;;;;;5093742;28;821;-68
2022/12/08 10:00:34;;;;;;;;;;;;;;;;;;5091428;28;1191;-68
2022/12/08 10:02:59;;;;;;;;;;;;;;;;;;5092445;28;953;-68
2022/12/08 10:05:25;;;;;;;;;;;;;;;;;;5092933;28;860;-68
2022/12/08 10:08:11;;;;;;;;;;;;;;;;;;5092826;28;959;-68
2022/12/08 10:10:47;;;;;;;;;;;;;;;;;;5090853;28;1965;-68
2022/12/08 10:13:15;;;;;;;;;;;;;;;;;;5092637;28;884;-68
2022/12/08 10:15:50;;;;;;;;;;;;;;;;;;5091206;28;1242;-67
2022/12/08 10:18:16;;;;;;;;;;;;;;;;;;5092231;28;840;-68
2022/12/08 10:20:43;;;;;;;;;;;;;;;;;;5091674;28;844;-68
2022/12/08 10:23:11;;;;;;;;;;;;;;;;;;5091524;28;1238;-68
2022/12/08 10:25:51;;;;;;;;;;;;;;;;;;5090253;28;1222;-68
2022/12/08 10:28:16;;;;;;;;;;;;;;;;;;5092220;28;966;-68
2022/12/08 10:30:41;;;;;;;;;;;;;;;;;;5091801;28;1901;-67
2022/12/08 10:33:14;;;;;;;;;;;;;;;;;;5092589;28;753;-68
2022/12/08 10:35:45;;;;;;;;;;;;;;;;;;5090254;28;1316;-68
2022/12/08 10:38:25;;;;;;;;;;;;;;;;;;5092361;28;919;-68
2022/12/08 10:40:52;;;;;;;;;;;;;;;;;;5089449;28;1215;-68
2022/12/08 10:43:20;;;;;;;;;;;;;;;;;;5091646;28;785;-68
2022/12/08 10:45:46;;;;;;;;;;;;;;;;;;5091237;28;879;-68
2022/12/08 10:48:30;;;;;;;;;;;;;;;;;;5090692;28;1309;-68
2022/12/08 10:50:55;;;;;;;;;;;;;;;;;;5091519;28;1973;-68
2022/12/08 10:53:25;;;;;;;;;;;;;;;;;;5091567;28;809;-68
2022/12/08 10:56:02;;;;;;;;;;;;;;;;;;5091853;28;821;-68
2022/12/08 10:58:34;;;;;;;;;;;;;;;;;;5091532;28;848;-68
2022/12/08 11:01:03;;;;;;;;;;;;;;;;;;5090549;28;1260;-68
2022/12/08 11:03:30;;;;;;;;;;;;;;;;;;5089631;28;1203;-68
2022/12/08 11:05:56;;;;;;;;;;;;;;;;;;5091861;28;836;-68
2022/12/08 11:08:21;;;;;;;;;;;;;;;;;;5091599;28;947;-68
2022/12/08 11:10:47;;;;;;;;;;;;;;;;;;5072800;28;1901;-68
2022/12/08 11:13:17;;;;;;;;;;;;;;;;;;5090089;28;1340;-68
2022/12/08 11:15:44;;;;;;;;;;;;;;;;;;5090898;28;907;-68
2022/12/08 11:18:22;;;;;;;;;;;;;;;;;;5089119;28;1357;-67
2022/12/08 11:20:54;;;;;;;;;;;;;;;;;;5091719;28;987;-68
2022/12/08 11:23:21;;;;;;;;;;;;;;;;;;5090105;28;1241;-67
2022/12/08 11:25:47;;;;;;;;;;;;;;;;;;5091991;28;883;-68
2022/12/08 11:28:12;;;;;;;;;;;;;;;;;;5092105;28;840;-67
2022/12/08 11:30:40;;;;;;;;;;;;;;;;;;5073030;28;1905;-67
2022/12/08 11:33:13;;;;;;;;;;;;;;;;;;5091608;28;880;-67
2022/12/08 11:35:40;;;;;;;;;;;;;;;;;;5090717;28;841;-68
2022/12/08 11:38:23;;;;;;;;;;;;;;;;;;5090965;28;825;-68
2022/12/08 11:41:11;;;;;;;;;;;;;;;;;;5089119;28;1205;-66
2022/12/08 11:43:40;;;;;;;;;;;;;;;;;;5084734;28;1257;-66
2022/12/08 11:46:10;;;;;;;;;;;;;;;;;;5091191;28;872;-66
2022/12/08 11:48:43;;;;;;;;;;;;;;;;;;5090051;28;826;-66
2022/12/08 11:51:15;;;;;;;;;;;;;;;;;;5091165;28;1902;-66
2022/12/08 11:53:50;;;;;;;;;;;;;;;;;;5090851;28;829;-66
2022/12/08 11:56:23;;;;;;;;;;;;;;;;;;5089611;28;1317;-66
2022/12/08 11:58:52;;;;;;;;;;;;;;;;;;5089291;28;1431;-66
2022/12/08 12:01:19;;;;;;;;;;;;;;;;;;5090434;28;950;-66
2022/12/08 12:03:47;;;;;;;;;;;;;;;;;;5089833;28;801;-66
2022/12/08 12:06:23;;;;;;;;;;;;;;;;;;5090928;28;891;-66
2022/12/08 12:08:48;;;;;;;;;;;;;;;;;;5089100;28;1249;-66
2022/12/08 12:14:10;;;;;;;;;;;;;;;;;;5090695;28;691;-66
2022/12/08 12:16:44;;;;;;;;;;;;;;;;;;5090070;28;855;-66
2022/12/08 12:19:13;;;;;;;;;;;;;;;;;;5090976;28;978;-66
2022/12/08 12:21:48;;;;;;;;;;;;;;;;;;5088957;28;1242;-66
2022/12/08 12:24:16;;;;;;;;;;;;;;;;;;5089075;28;1293;-66
2022/12/08 12:26:53;;;;;;;;;;;;;;;;;;5088929;28;1209;-66
2022/12/08 12:29:20;;;;;;;;;;;;;;;;;;5091615;28;1914;-66
2022/12/08 12:31:54;;;;;;;;;;;;;;;;;;5093233;28;836;-66
2022/12/08 12:34:30;;;;;;;;;;;;;;;;;;5094202;28;892;-66
2022/12/08 12:37:10;;;;;;;;;;;;;;;;;;5092422;28;1174;-66
2022/12/08 12:39:48;;;;;;;;;;;;;;;;;;5093245;28;1208;-66
2022/12/08 12:42:32;;;;;;;;;;;;;;;;;;5092678;28;1314;-66
2022/12/08 12:45:15;;;;;;;;;;;;;;;;;;5094087;28;995;-66
2022/12/08 12:47:43;;;;;;;;;;;;;;;;;;5092248;28;1273;-66
2022/12/08 12:50:10;;;;;;;;;;;;;;;;;;5094897;28;1909;-66
2022/12/08 12:52:36;;;;;;;;;;;;;;;;;;5093400;28;1424;-66
2022/12/08 12:55:01;;;;;;;;;;;;;;;;;;5092616;28;1573;-66
2022/12/08 12:57:49;;;;;;;;;;;;;;;;;;5094349;28;863;-66
2022/12/08 13:00:21;;;;;;;;;;;;;;;;;;5093477;28;1207;-66
2022/12/08 13:02:47;;;;;;;;;;;;;;;;;;5094454;28;1086;-66
2022/12/08 13:05:13;;;;;;;;;;;;;;;;;;5109619;28;1131;-66
2022/12/08 13:07:41;;;;;;;;;;;;;;;;;;5093619;28;836;-66
2022/12/08 13:10:30;;;;;;;;;;;;;;;;;;5093373;28;1910;-66
2022/12/08 13:13:04;;;;;;;;;;;;;;;;;;5090283;28;1189;-66
2022/12/08 13:15:33;;;;;;;;;;;;;;;;;;5091466;28;1262;-66
2022/12/08 13:17:58;;;;;;;;;;;;;;;;;;5093064;28;892;-66
2022/12/08 13:20:24;;;;;;;;;;;;;;;;;;5092200;28;1133;-66
2022/12/08 13:22:52;;;;;;;;;;;;;;;;;;5091486;28;1227;-66
2022/12/08 13:25:36;;;;;;;;;;;;;;;;;;5092244;28;1161;-66
2022/12/08 13:28:07;;;;;;;;;;;;;;;;;;5091934;28;1171;-66
2022/12/08 13:30:53;;;;;;;;;;;;;;;;;;5091762;28;1949;-66
2022/12/08 13:33:24;;;;;;;;;;;;;;;;;;5092942;28;1016;-66
2022/12/08 13:35:59;;;;;;;;;;;;;;;;;;5092923;28;824;-66
2022/12/08 13:38:26;;;;;;;;;;;;;;;;;;5092794;28;1139;-66
2022/12/08 13:40:53;;;;;;;;;;;;;;;;;;5091973;28;1241;-66
2022/12/08 13:43:18;;;;;;;;;;;;;;;;;;5093083;28;1011;-66
2022/12/08 13:45:44;;;;;;;;;;;;;;;;;;5092744;28;841;-66
2022/12/08 13:48:16;;;;;;;;;;;;;;;;;;5108336;28;1294;-66
2022/12/08 13:51:05;;;;;;;;;;;;;;;;;;5092504;28;1914;-66
2022/12/08 13:53:36;;;;;;;;;;;;;;;;;;5091213;28;1050;-67
2022/12/08 13:56:02;;;;;;;;;;;;;;;;;;5091524;28;1314;-68
2022/12/08 13:58:29;;;;;;;;;;;;;;;;;;5125144;27;1378;-67
2022/12/08 14:00:58;;;;;;;;;;;;;;;;;;5092620;28;889;-67
2022/12/08 14:03:23;;;;;;;;;;;;;;;;;;5092546;28;833;-68
2022/12/08 14:05:49;;;;;;;;;;;;;;;;;;5091889;28;899;-67
2022/12/08 14:08:27;;;;;;;;;;;;;;;;;;5092093;28;898;-68
2022/12/08 14:10:57;;;;;;;;;;;;;;;;;;5093034;28;1968;-68
2022/12/08 14:13:23;;;;;;;;;;;;;;;;;;5092249;28;860;-68
2022/12/08 14:15:48;;;;;;;;;;;;;;;;;;5092149;28;883;-68
2022/12/08 14:18:27;;;;;;;;;;;;;;;;;;5092641;28;875;-68
2022/12/08 14:21:03;;;;;;;;;;;;;;;;;;5092368;28;900;-68
2022/12/08 14:23:29;;;;;;;;;;;;;;;;;;5125579;27;1206;-68
2022/12/08 14:25:54;;;;;;;;;;;;;;;;;;5093921;28;821;-66
2022/12/08 14:28:20;;;;;;;;;;;;;;;;;;5091689;28;1219;-68
2022/12/08 14:30:46;;;;;;;;;;;;;;;;;;5108991;28;1878;-68
2022/12/08 14:33:13;;;;;;;;;;;;;;;;;;5091880;28;1408;-68
2022/12/08 14:35:39;;;;;;;;;;;;;;;;;;5092481;28;1063;-67
2022/12/08 14:38:12;;;;;;;;;;;;;;;;;;5107685;28;1206;-67
2022/12/08 14:40:39;;;;;;;;;;;;;;;;;;5089993;28;1277;-67
2022/12/08 14:43:07;;;;;;;;;;;;;;;;;;5091684;28;983;-67
2022/12/08 14:45:33;;;;;;;;;;;;;;;;;;5091639;28;857;-67
2022/12/08 14:48:17;;;;;;;;;;;;;;;;;;5091902;28;896;-67
2022/12/08 14:50:52;;;;;;;;;;;;;;;;;;5090984;28;2004;-67
2022/12/08 14:53:18;;;;;;;;;;;;;;;;;;5090579;28;943;-67
2022/12/08 14:55:45;;;;;;;;;;;;;;;;;;5091125;28;816;-67
2022/12/08 14:58:22;;;;;;;;;;;;;;;;;;5091287;28;891;-65
2022/12/08 15:00:50;;;;;;;;;;;;;;;;;;5089566;28;1238;-65
2022/12/08 15:03:16;;;;;;;;;;;;;;;;;;5089752;28;1316;-65
2022/12/08 15:05:42;;;;;;;;;;;;;;;;;;5091147;28;903;-65
2022/12/08 15:08:10;;;;;;;;;;;;;;;;;;5106996;28;1456;-65
2022/12/08 15:10:38;;;;;;;;;;;;;;;;;;5090528;28;2016;-66
2022/12/08 15:13:03;;;;;;;;;;;;;;;;;;5106213;28;1238;-65
2022/12/08 15:15:29;;;;;;;;;;;;;;;;;;5090758;28;892;-65
2022/12/08 15:18:11;;;;;;;;;;;;;;;;;;5091251;28;891;-65
2022/12/08 15:20:41;;;;;;;;;;;;;;;;;;5090577;28;884;-65
2022/12/08 15:23:17;;;;;;;;;;;;;;;;;;5089462;28;1274;-65
2022/12/08 15:25:43;;;;;;;;;;;;;;;;;;5090563;28;832;-65
2022/12/08 15:28:11;;;;;;;;;;;;;;;;;;5091290;28;908;-65
2022/12/08 15:30:36;;;;;;;;;;;;;;;;;;5089090;28;1967;-65
2022/12/08 15:33:01;;;;;;;;;;;;;;;;;;5106697;28;1421;-66
2022/12/08 15:35:26;;;;;;;;;;;;;;;;;;5123144;27;907;-65
2022/12/08 15:37:52;;;;;;;;;;;;;;;;;;5106488;28;1245;-66
2022/12/08 15:40:19;;;;;;;;;;;;;;;;;;5106239;28;1117;-65
2022/12/08 15:42:44;;;;;;;;;;;;;;;;;;5090351;28;908;-66
2022/12/08 15:45:13;;;;;;;;;;;;;;;;;;5089652;28;1302;-65
2022/12/08 15:47:38;;;;;;;;;;;;;;;;;;5106822;28;1253;-65
2022/12/08 15:50:04;;;;;;;;;;;;;;;;;;5122525;28;1894;-65
2022/12/08 15:52:29;;;;;;;;;;;;;;;;;;5088650;28;1266;-65
2022/12/08 15:54:54;;;;;;;;;;;;;;;;;;5091612;28;849;-65
2022/12/08 15:57:20;;;;;;;;;;;;;;;;;;5089917;28;1478;-65
2022/12/08 15:59:45;;;;;;;;;;;;;;;;;;5091097;28;929;-65
2022/12/08 16:02:11;;;;;;;;;;;;;;;;;;5090733;28;911;-66
2022/12/08 16:04:38;;;;;;;;;;;;;;;;;;5091739;28;1046;-66
2022/12/08 16:07:03;;;;;;;;;;;;;;;;;;5093398;28;1349;-66
2022/12/08 16:09:35;;;;;;;;;;;;;;;;;;5093942;28;2024;-66
2022/12/08 16:14:44;;;;;;;;;;;;;;;;;;5122578;27;666;-66
2022/12/08 16:17:16;;;;;;;;;;;;;;;;;;5127015;27;793;-66
2022/12/08 16:19:43;;;;;;;;;;;;;;;;;;5093796;28;916;-66
2022/12/08 16:22:15;;;;;;;;;;;;;;;;;;5094357;28;1006;-66
2022/12/08 16:24:40;;;;;;;;;;;;;;;;;;5092675;28;1194;-66
2022/12/08 16:27:07;;;;;;;;;;;;;;;;;;5094476;28;821;-66
2022/12/08 16:29:33;;;;;;;;;;;;;;;;;;5091744;28;1905;-66
2022/12/08 16:31:58;;;;;;;;;;;;;;;;;;5093816;28;856;-66
2022/12/08 16:34:23;;;;;;;;;;;;;;;;;;5109461;28;1190;-66
2022/12/08 16:36:51;;;;;;;;;;;;;;;;;;5109269;28;1405;-66
2022/12/08 16:39:16;;;;;;;;;;;;;;;;;;5094129;28;900;-67
2022/12/08 16:44:25;;;;;;;;;;;;;;;;;;5093446;28;658;-67
2022/12/08 16:46:51;;;;;;;;;;;;;;;;;;5092523;28;1246;-67
2022/12/08 16:49:16;;;;;;;;;;;;;;;;;;5093440;28;1963;-67
2022/12/08 16:51:42;;;;;;;;;;;;;;;;;;5126558;27;789;-67
2022/12/08 16:54:07;;;;;;;;;;;;;;;;;;5091096;28;1302;-67
2022/12/08 16:56:32;;;;;;;;;;;;;;;;;;5093149;28;844;-67
2022/12/08 16:58:58;;;;;;;;;;;;;;;;;;5093826;28;844;-67
2022/12/08 17:01:23;;;;;;;;;;;;;;;;;;5092480;28;1014;-67
2022/12/08 17:03:48;;;;;;;;;;;;;;;;;;5090931;28;1206;-67
2022/12/08 17:06:15;;;;;;;;;;;;;;;;;;5092423;28;955;-67
2022/12/08 17:08:41;;;;;;;;;;;;;;;;;;5094232;28;920;-67
2022/12/08 17:11:06;;;;;;;;;;;;;;;;;;5094257;28;1957;-67
2022/12/08 17:13:32;;;;;;;;;;;;;;;;;;5092370;28;1332;-67
2022/12/08 17:15:58;;;;;;;;;;;;;;;;;;5074503;28;1289;-67
2022/12/08 17:18:23;;;;;;;;;;;;;;;;;;5092310;28;833;-67
2022/12/08 17:20:48;;;;;;;;;;;;;;;;;;5076736;28;1335;-67
2022/12/08 17:23:14;;;;;;;;;;;;;;;;;;5094678;28;990;-67
2022/12/08 17:25:39;;;;;;;;;;;;;;;;;;5092428;28;1250;-67
2022/12/08 17:28:04;;;;;;;;;;;;;;;;;;5093040;28;1222;-67
2022/12/08 17:30:29;;;;;;;;;;;;;;;;;;5093371;28;1893;-67